createdAt,value
2023-02-14T00:00:47.100Z,7.69
2023-02-14T00:03:13.489Z,7.63
2023-02-14T00:05:39.923Z,7.67
2023-02-14T00:08:06.301Z,7.61
2023-02-14T00:10:32.720Z,7.42
2023-02-14T00:12:59.119Z,7.43
2023-02-14T00:15:25.555Z,7.49
2023-02-14T00:17:51.987Z,7.42
2023-02-14T00:20:18.389Z,7.37
2023-02-14T00:22:44.802Z,7.30
2023-02-14T00:25:11.196Z,7.37
2023-02-14T00:27:37.598Z,7.43
2023-02-14T00:30:04.022Z,7.39
2023-02-14T00:32:30.480Z,7.36
2023-02-14T00:34:56.869Z,7.34
2023-02-14T00:37:23.237Z,7.26
2023-02-14T00:39:49.625Z,7.27
2023-02-14T00:42:16.010Z,7.25
2023-02-14T00:44:42.389Z,7.24
2023-02-14T00:47:08.780Z,7.21
2023-02-14T00:49:37.895Z,7.17
2023-02-14T00:52:05.382Z,7.23
2023-02-14T00:54:31.755Z,7.14
2023-02-14T00:56:58.184Z,7.20
2023-02-14T00:59:24.622Z,7.20
2023-02-14T01:01:51.000Z,7.17
2023-02-14T01:04:17.391Z,7.20
2023-02-14T01:06:43.778Z,7.24
2023-02-14T01:09:10.170Z,7.25
2023-02-14T01:11:36.552Z,7.11
2023-02-14T01:14:04.065Z,7.03
2023-02-14T01:16:30.486Z,6.78
2023-02-14T01:18:56.945Z,6.66
2023-02-14T01:21:23.351Z,6.73
2023-02-14T01:23:49.731Z,6.81
2023-02-14T01:26:16.169Z,6.86
2023-02-14T01:28:42.588Z,6.92
2023-02-14T01:31:08.993Z,6.95
2023-02-14T01:33:35.389Z,6.96
2023-02-14T01:36:01.752Z,6.94
2023-02-14T01:38:28.133Z,6.97
2023-02-14T01:40:54.599Z,6.98
2023-02-14T01:43:21.015Z,6.99
2023-02-14T01:45:47.405Z,7.05
2023-02-14T01:48:13.792Z,7.02
2023-02-14T01:50:40.189Z,7.02
2023-02-14T01:53:06.622Z,7.01
2023-02-14T01:55:33.022Z,7.00
2023-02-14T01:57:59.409Z,7.01
2023-02-14T02:00:25.831Z,7.05
2023-02-14T02:02:52.217Z,7.00
2023-02-14T02:05:18.595Z,7.01
2023-02-14T02:07:44.990Z,7.00
2023-02-14T02:10:11.368Z,6.96
2023-02-14T02:12:37.754Z,6.89
2023-02-14T02:15:04.125Z,6.89
2023-02-14T02:17:30.554Z,6.92
2023-02-14T02:19:56.923Z,6.90
2023-02-14T02:22:23.318Z,6.87
2023-02-14T02:24:49.790Z,6.83
2023-02-14T02:27:16.206Z,6.80
2023-02-14T02:29:42.616Z,6.79
2023-02-14T02:32:09.115Z,6.66
2023-02-14T02:34:35.567Z,6.68
2023-02-14T02:37:01.936Z,6.69
2023-02-14T02:39:28.316Z,6.62
2023-02-14T02:41:54.678Z,6.65
2023-02-14T02:44:21.031Z,6.64
2023-02-14T02:46:47.424Z,6.64
2023-02-14T02:49:16.989Z,6.66
2023-02-14T02:51:43.405Z,6.61
2023-02-14T02:54:09.809Z,6.63
2023-02-14T02:56:36.214Z,6.65
2023-02-14T02:59:02.633Z,6.66
2023-02-14T03:01:29.064Z,6.66
2023-02-14T03:03:55.508Z,6.70
2023-02-14T03:06:21.878Z,6.66
2023-02-14T03:08:48.293Z,6.69
2023-02-14T03:11:14.704Z,6.71
2023-02-14T03:13:41.090Z,6.70
2023-02-14T03:16:07.523Z,6.70
2023-02-14T03:18:33.934Z,6.66
2023-02-14T03:21:00.601Z,6.67
2023-02-14T03:23:27.211Z,6.68
2023-02-14T03:25:53.582Z,6.68
2023-02-14T03:28:20.037Z,6.66
2023-02-14T03:30:46.512Z,6.70
2023-02-14T03:33:12.965Z,6.75
2023-02-14T03:35:39.352Z,6.74
2023-02-14T03:38:05.735Z,6.74
2023-02-14T03:40:32.182Z,6.72
2023-02-14T03:42:58.573Z,6.64
2023-02-14T03:45:25.049Z,6.65
2023-02-14T03:47:51.442Z,6.64
2023-02-14T03:50:17.911Z,6.62
2023-02-14T03:52:44.325Z,6.60
2023-02-14T03:55:10.815Z,6.54
2023-02-14T03:57:37.310Z,6.55
2023-02-14T04:00:03.685Z,6.38
2023-02-14T04:02:30.090Z,6.36
2023-02-14T04:04:56.458Z,6.42
2023-02-14T04:07:22.848Z,6.42
2023-02-14T04:09:49.235Z,6.40
2023-02-14T04:12:16.932Z,6.36
2023-02-14T04:14:44.641Z,6.31
2023-02-14T04:17:11.036Z,6.36
2023-02-14T04:19:37.471Z,6.34
2023-02-14T04:22:03.886Z,6.32
2023-02-14T04:24:32.669Z,6.36
2023-02-14T04:26:59.096Z,6.32
2023-02-14T04:29:25.494Z,6.34
2023-02-14T04:31:51.979Z,6.25
2023-02-14T04:34:19.853Z,6.27
2023-02-14T04:36:46.248Z,6.29
2023-02-14T04:39:12.629Z,6.27
2023-02-14T04:41:39.042Z,6.24
2023-02-14T04:44:05.440Z,6.24
2023-02-14T04:46:31.884Z,6.26
2023-02-14T04:48:58.332Z,6.26
2023-02-14T04:51:27.306Z,6.29
2023-02-14T04:53:53.934Z,6.32
2023-02-14T04:56:20.326Z,6.32
2023-02-14T04:58:49.052Z,6.27
2023-02-14T05:01:15.485Z,6.28
2023-02-14T05:03:41.974Z,6.16
2023-02-14T05:06:08.341Z,6.15
2023-02-14T05:08:34.760Z,6.23
2023-02-14T05:11:01.373Z,6.23
2023-02-14T05:13:27.871Z,6.22
2023-02-14T05:15:54.421Z,6.14
2023-02-14T05:18:20.824Z,6.11
2023-02-14T05:20:47.179Z,6.09
2023-02-14T05:23:13.734Z,6.12
2023-02-14T05:25:40.211Z,6.13
2023-02-14T05:28:06.676Z,6.13
2023-02-14T05:30:33.182Z,6.07
2023-02-14T05:32:59.624Z,6.06
2023-02-14T05:35:26.040Z,6.01
2023-02-14T05:37:52.437Z,5.98
2023-02-14T05:40:18.827Z,5.99
2023-02-14T05:42:45.211Z,5.98
2023-02-14T05:45:12.994Z,6.00
2023-02-14T05:47:39.384Z,6.05
2023-02-14T05:50:05.766Z,6.00
2023-02-14T05:52:32.166Z,5.98
2023-02-14T05:54:58.572Z,5.98
2023-02-14T05:57:24.981Z,5.98
2023-02-14T05:59:51.394Z,5.98
2023-02-14T06:02:17.864Z,6.00
2023-02-14T06:04:44.324Z,5.87
2023-02-14T06:07:10.726Z,5.77
2023-02-14T06:09:37.135Z,5.74
2023-02-14T06:12:03.627Z,5.66
2023-02-14T06:14:30.050Z,5.62
2023-02-14T06:16:56.534Z,5.65
2023-02-14T06:19:22.986Z,5.79
2023-02-14T06:21:49.359Z,5.73
2023-02-14T06:24:15.738Z,5.73
2023-02-14T06:26:42.142Z,5.74
2023-02-14T06:29:08.531Z,5.69
2023-02-14T06:31:34.993Z,5.70
2023-02-14T06:34:01.447Z,5.70
2023-02-14T06:36:27.841Z,5.73
2023-02-14T06:38:54.202Z,5.73
2023-02-14T06:41:20.570Z,5.72
2023-02-14T06:43:46.967Z,5.72
2023-02-14T06:46:13.337Z,5.68
2023-02-14T06:48:39.728Z,5.69
2023-02-14T06:51:06.103Z,5.60
2023-02-14T06:53:32.483Z,5.58
2023-02-14T06:55:58.889Z,5.60
2023-02-14T06:58:25.286Z,5.52
2023-02-14T07:00:51.671Z,5.25
2023-02-14T07:03:18.024Z,5.37
2023-02-14T07:05:44.421Z,5.48
2023-02-14T07:08:10.800Z,5.56
2023-02-14T07:10:37.208Z,5.58
2023-02-14T07:13:03.591Z,5.67
2023-02-14T07:15:30.068Z,5.68
2023-02-14T07:17:56.473Z,5.63
2023-02-14T07:20:22.859Z,5.68
2023-02-14T07:22:49.289Z,5.66
2023-02-14T07:25:15.715Z,5.71
2023-02-14T07:27:42.175Z,5.70
2023-02-14T07:30:08.645Z,5.69
2023-02-14T07:32:35.095Z,5.78
2023-02-14T07:35:01.472Z,5.85
2023-02-14T07:37:27.854Z,5.94
2023-02-14T07:39:54.338Z,5.99
2023-02-14T07:42:20.706Z,6.10
2023-02-14T07:44:47.088Z,6.11
2023-02-14T07:47:13.450Z,6.08
2023-02-14T07:49:39.867Z,6.01
2023-02-14T07:52:06.243Z,6.04
2023-02-14T07:54:32.605Z,5.98
2023-02-14T07:56:58.994Z,5.94
2023-02-14T07:59:26.131Z,6.12
2023-02-14T08:01:52.680Z,6.37
2023-02-14T08:04:19.127Z,6.35
2023-02-14T08:06:45.518Z,6.29
2023-02-14T08:09:11.933Z,6.38
2023-02-14T08:11:38.357Z,6.49
2023-02-14T08:14:04.783Z,6.40
2023-02-14T08:16:31.254Z,6.53
2023-02-14T08:18:57.672Z,6.75
2023-02-14T08:21:24.060Z,6.73
2023-02-14T08:23:50.442Z,6.74
2023-02-14T08:26:16.854Z,6.56
2023-02-14T08:28:43.220Z,6.43
2023-02-14T08:31:09.629Z,6.37
2023-02-14T08:33:36.023Z,6.34
2023-02-14T08:36:02.431Z,6.35
2023-02-14T08:38:28.806Z,6.30
2023-02-14T08:40:55.176Z,6.28
2023-02-14T08:43:21.546Z,6.08
2023-02-14T08:45:47.937Z,6.44
2023-02-14T08:48:14.339Z,6.63
2023-02-14T08:50:40.740Z,6.63
2023-02-14T08:53:07.142Z,6.76
2023-02-14T08:55:33.531Z,7.04
2023-02-14T08:57:59.954Z,6.80
2023-02-14T09:00:26.423Z,6.56
2023-02-14T09:02:52.840Z,6.62
2023-02-14T09:05:19.203Z,6.88
2023-02-14T09:07:45.594Z,6.99
2023-02-14T09:10:12.087Z,7.39
2023-02-14T09:12:38.478Z,7.46
2023-02-14T09:15:04.880Z,7.45
2023-02-14T09:17:31.305Z,7.17
2023-02-14T09:19:57.719Z,7.04
2023-02-14T09:22:24.113Z,7.19
2023-02-14T09:24:50.516Z,7.28
2023-02-14T09:27:16.894Z,7.25
2023-02-14T09:29:43.321Z,7.77
2023-02-14T09:32:09.771Z,7.89
2023-02-14T09:34:36.195Z,7.97
2023-02-14T09:37:03.216Z,8.25
2023-02-14T09:39:30.698Z,8.37
2023-02-14T09:41:57.083Z,8.26
2023-02-14T09:44:23.493Z,8.00
2023-02-14T09:46:49.893Z,7.99
2023-02-14T09:49:16.443Z,8.23
2023-02-14T09:51:42.877Z,8.56
2023-02-14T09:54:09.284Z,8.55
2023-02-14T09:56:50.385Z,8.72
2023-02-14T09:59:17.561Z,8.97
2023-02-14T10:01:43.941Z,8.50
2023-02-14T10:04:10.303Z,8.53
2023-02-14T10:06:36.729Z,8.51
2023-02-14T10:09:03.141Z,8.71
2023-02-14T10:11:29.499Z,8.67
2023-02-14T10:13:55.877Z,8.91
2023-02-14T10:16:22.372Z,8.82
2023-02-14T10:18:48.816Z,9.05
2023-02-14T10:21:15.246Z,9.01
2023-02-14T10:23:41.663Z,9.00
2023-02-14T10:26:08.079Z,8.99
2023-02-14T10:28:34.496Z,9.15
2023-02-14T10:31:01.288Z,9.02
2023-02-14T10:33:27.883Z,8.94
2023-02-14T10:35:54.250Z,8.59
2023-02-14T10:38:20.645Z,8.94
2023-02-14T10:40:47.027Z,9.53
2023-02-14T10:43:13.435Z,9.44
2023-02-14T10:45:39.855Z,9.09
2023-02-14T10:48:06.287Z,9.46
2023-02-14T10:50:32.703Z,9.88
2023-02-14T10:52:59.099Z,9.68
2023-02-14T10:55:33.031Z,9.66
2023-02-14T10:57:59.483Z,9.72
2023-02-14T11:00:25.865Z,10.21
2023-02-14T11:02:52.249Z,9.94
2023-02-14T11:05:18.674Z,10.23
2023-02-14T11:07:45.091Z,10.67
2023-02-14T11:10:11.483Z,10.68
2023-02-14T11:12:37.915Z,10.49
2023-02-14T11:15:04.386Z,10.38
2023-02-14T11:17:30.770Z,10.32
2023-02-14T11:19:57.194Z,10.79
2023-02-14T11:22:23.585Z,10.54
2023-02-14T11:24:49.967Z,10.08
2023-02-14T11:27:16.377Z,9.82
2023-02-14T11:29:42.736Z,10.55
2023-02-14T11:32:09.170Z,10.26
2023-02-14T11:34:35.568Z,10.29
2023-02-14T11:37:01.954Z,10.68
2023-02-14T11:39:28.352Z,10.86
2023-02-14T11:41:54.746Z,11.32
2023-02-14T11:44:21.150Z,10.88
2023-02-14T11:46:53.073Z,10.68
2023-02-14T11:49:20.112Z,10.68
2023-02-14T11:51:46.491Z,11.45
2023-02-14T11:54:12.910Z,10.99
2023-02-14T11:56:39.299Z,10.76
2023-02-14T11:59:05.849Z,11.50
2023-02-14T12:01:35.103Z,11.62
2023-02-14T12:04:01.554Z,11.91
2023-02-14T12:06:27.931Z,11.62
2023-02-14T12:08:54.302Z,11.49
2023-02-14T12:11:20.728Z,11.45
2023-02-14T12:13:47.109Z,12.27
2023-02-14T12:16:13.473Z,12.12
2023-02-14T12:18:39.867Z,11.99
2023-02-14T12:21:06.353Z,12.51
2023-02-14T12:23:32.775Z,13.08
2023-02-14T12:25:59.184Z,12.95
2023-02-14T12:28:25.569Z,12.85
2023-02-14T12:30:52.019Z,13.00
2023-02-14T12:33:18.472Z,13.45
2023-02-14T12:35:44.844Z,13.30
2023-02-14T12:38:11.230Z,12.56
2023-02-14T12:40:37.599Z,12.15
2023-02-14T12:43:04.049Z,11.50
2023-02-14T12:45:30.441Z,11.42
2023-02-14T12:47:56.844Z,11.66
2023-02-14T12:50:23.206Z,12.44
2023-02-14T12:52:49.570Z,11.49
2023-02-14T12:55:15.992Z,12.21
2023-02-14T12:57:42.375Z,12.26
2023-02-14T13:00:08.766Z,12.23
2023-02-14T13:02:35.207Z,12.78
2023-02-14T13:05:01.654Z,13.44
2023-02-14T13:07:28.061Z,13.19
2023-02-14T13:09:54.638Z,13.82
2023-02-14T13:12:21.010Z,13.13
2023-02-14T13:14:47.378Z,13.59
2023-02-14T13:17:13.734Z,13.65
2023-02-14T13:19:40.103Z,12.99
2023-02-14T13:22:06.473Z,13.92
2023-02-14T13:24:32.874Z,13.41
2023-02-14T13:26:59.271Z,13.40
2023-02-14T13:29:25.647Z,13.60
2023-02-14T13:31:52.157Z,13.72
2023-02-14T13:34:18.554Z,13.75
2023-02-14T13:36:44.946Z,13.90
2023-02-14T13:39:11.365Z,13.79
2023-02-14T13:41:37.749Z,13.67
2023-02-14T13:44:04.156Z,14.29
2023-02-14T13:46:30.624Z,14.36
2023-02-14T13:48:57.129Z,13.52
2023-02-14T13:51:23.506Z,13.82
2023-02-14T13:53:49.878Z,14.53
2023-02-14T13:56:16.320Z,14.26
2023-02-14T13:58:42.752Z,14.77
2023-02-14T14:01:09.196Z,15.04
2023-02-14T14:03:35.748Z,15.71
2023-02-14T14:06:02.616Z,15.82
2023-02-14T14:08:30.582Z,15.80
2023-02-14T14:10:57.104Z,16.34
2023-02-14T14:13:23.525Z,16.50
2023-02-14T14:15:49.944Z,16.63
2023-02-14T14:18:16.339Z,16.43
2023-02-14T14:20:42.709Z,16.54
2023-02-14T14:23:09.093Z,16.91
2023-02-14T14:25:35.469Z,17.10
2023-02-14T14:28:02.105Z,16.63
2023-02-14T14:30:28.557Z,16.73
2023-02-14T14:32:55.067Z,16.69
2023-02-14T14:35:21.509Z,16.48
2023-02-14T14:37:47.922Z,17.02
2023-02-14T14:40:14.309Z,17.38
2023-02-14T14:42:40.739Z,17.39
2023-02-14T14:45:07.123Z,17.32
2023-02-14T14:47:33.494Z,17.19
2023-02-14T14:49:59.903Z,16.75
2023-02-14T14:52:26.298Z,17.42
2023-02-14T14:54:52.722Z,17.62
2023-02-14T14:57:19.135Z,18.58
2023-02-14T14:59:45.526Z,19.07
2023-02-14T15:02:11.894Z,19.58
2023-02-14T15:04:38.311Z,20.59
2023-02-14T15:07:04.755Z,20.28
2023-02-14T15:09:31.161Z,20.60
2023-02-14T15:11:57.521Z,20.73
2023-02-14T15:14:23.919Z,21.50
2023-02-14T15:16:50.314Z,20.50
2023-02-14T15:19:16.731Z,21.09
2023-02-14T15:21:44.698Z,20.64
2023-02-14T15:24:11.212Z,20.77
2023-02-14T15:26:37.603Z,21.16
2023-02-14T15:29:04.033Z,20.24
2023-02-14T15:31:30.555Z,20.27
2023-02-14T15:33:57.029Z,21.22
2023-02-14T15:36:25.597Z,21.23
2023-02-14T15:38:52.007Z,21.27
2023-02-14T15:41:18.425Z,21.47
2023-02-14T15:43:44.801Z,21.38
2023-02-14T15:46:11.205Z,20.91
2023-02-14T15:48:37.636Z,21.70
2023-02-14T15:51:04.050Z,22.01
2023-02-14T15:53:30.420Z,22.04
2023-02-14T15:55:56.802Z,21.01
2023-02-14T15:58:23.204Z,20.73
2023-02-14T16:00:49.594Z,20.69
2023-02-14T16:03:15.995Z,21.08
2023-02-14T16:05:42.399Z,21.40
2023-02-14T16:08:08.836Z,21.72
2023-02-14T16:10:35.237Z,21.13
2023-02-14T16:13:01.616Z,21.08
2023-02-14T16:15:28.035Z,20.73
2023-02-14T16:17:54.427Z,20.64
2023-02-14T16:20:20.813Z,20.65
2023-02-14T16:22:47.210Z,19.87
2023-02-14T16:25:13.602Z,19.61
2023-02-14T16:27:39.989Z,19.36
2023-02-14T16:30:06.473Z,18.28
2023-02-14T16:32:33.043Z,17.78
2023-02-14T16:34:59.550Z,17.74
2023-02-14T16:37:25.926Z,17.71
2023-02-14T16:39:52.308Z,17.02
2023-02-14T16:42:18.681Z,16.65
2023-02-14T16:44:45.054Z,16.09
2023-02-14T16:47:11.448Z,15.68
2023-02-14T16:49:37.826Z,15.19
2023-02-14T16:52:04.215Z,14.88
2023-02-14T16:54:30.633Z,14.68
2023-02-14T16:56:57.062Z,14.50
2023-02-14T16:59:23.458Z,14.26
2023-02-14T17:01:50.141Z,14.07
2023-02-14T17:04:16.577Z,14.07
2023-02-14T17:06:42.960Z,13.92
2023-02-14T17:09:09.398Z,13.77
2023-02-14T17:11:35.803Z,13.61
2023-02-14T17:14:02.221Z,13.62
2023-02-14T17:16:28.608Z,13.59
2023-02-14T17:18:54.986Z,13.52
2023-02-14T17:21:21.384Z,13.45
2023-02-14T17:23:47.840Z,13.41
2023-02-14T17:26:14.283Z,13.31
2023-02-14T17:28:40.806Z,13.45
2023-02-14T17:31:07.604Z,13.29
2023-02-14T17:33:34.321Z,13.28
2023-02-14T17:36:00.753Z,13.26
2023-02-14T17:38:27.174Z,12.48
2023-02-14T17:40:53.563Z,12.30
2023-02-14T17:43:19.988Z,12.49
2023-02-14T17:45:46.398Z,12.56
2023-02-14T17:48:12.776Z,12.60
2023-02-14T17:50:39.174Z,12.69
2023-02-14T17:53:05.581Z,12.52
2023-02-14T17:55:31.989Z,12.17
2023-02-14T17:57:58.368Z,12.25
2023-02-14T18:00:24.797Z,12.20
2023-02-14T18:02:51.214Z,11.92
2023-02-14T18:05:17.635Z,11.93
2023-02-14T18:07:44.054Z,11.77
2023-02-14T18:10:10.471Z,11.47
2023-02-14T18:12:36.942Z,11.67
2023-02-14T18:15:03.333Z,11.61
2023-02-14T18:17:29.690Z,11.63
2023-02-14T18:19:56.131Z,11.65
2023-02-14T18:22:22.498Z,11.65
2023-02-14T18:24:48.889Z,11.69
2023-02-14T18:27:15.276Z,11.74
2023-02-14T18:29:41.660Z,11.69
2023-02-14T18:32:08.096Z,11.59
2023-02-14T18:34:34.527Z,11.51
2023-02-14T18:37:00.906Z,11.64
2023-02-14T18:39:27.294Z,11.59
2023-02-14T18:41:53.781Z,11.56
2023-02-14T18:44:20.208Z,11.58
2023-02-14T18:46:46.568Z,11.62
2023-02-14T18:49:12.972Z,11.44
2023-02-14T18:51:39.400Z,11.33
2023-02-14T18:54:05.871Z,11.30
2023-02-14T18:56:32.245Z,11.24
2023-02-14T18:58:58.654Z,11.24
2023-02-14T19:01:25.129Z,11.17
2023-02-14T19:03:51.549Z,11.14
2023-02-14T19:06:17.961Z,11.14
2023-02-14T19:08:44.352Z,11.20
2023-02-14T19:11:10.795Z,11.23
2023-02-14T19:13:37.185Z,11.22
2023-02-14T19:16:03.589Z,11.15
2023-02-14T19:18:30.039Z,11.07
2023-02-14T19:20:56.421Z,11.11
2023-02-14T19:23:22.848Z,11.00
2023-02-14T19:25:49.379Z,11.06
2023-02-14T19:28:16.236Z,11.07
2023-02-14T19:30:42.649Z,11.05
2023-02-14T19:33:09.049Z,11.12
2023-02-14T19:35:35.434Z,11.13
2023-02-14T19:38:01.819Z,11.08
2023-02-14T19:40:29.063Z,11.03
2023-02-14T19:42:55.460Z,10.91
2023-02-14T19:45:21.859Z,10.91
2023-02-14T19:47:48.406Z,10.90
2023-02-14T19:50:14.840Z,10.87
2023-02-14T19:52:41.332Z,10.84
2023-02-14T19:55:07.733Z,10.84
2023-02-14T19:57:34.121Z,10.75
2023-02-14T20:00:00.580Z,10.74
2023-02-14T20:02:27.011Z,10.78
2023-02-14T20:04:53.487Z,10.76
2023-02-14T20:07:19.880Z,10.76
2023-02-14T20:09:46.252Z,10.74
2023-02-14T20:12:12.656Z,10.76
2023-02-14T20:14:50.824Z,10.75
2023-02-14T20:17:17.501Z,10.70
2023-02-14T20:19:43.879Z,10.67
2023-02-14T20:22:10.280Z,10.56
2023-02-14T20:24:36.660Z,10.45
2023-02-14T20:27:03.073Z,10.42
2023-02-14T20:29:29.485Z,10.43
2023-02-14T20:31:55.934Z,10.44
2023-02-14T20:34:22.381Z,10.40
2023-02-14T20:36:48.819Z,10.47
2023-02-14T20:39:15.213Z,10.43
2023-02-14T20:41:41.605Z,10.31
2023-02-14T20:44:08.039Z,10.27
2023-02-14T20:46:34.475Z,10.31
2023-02-14T20:49:00.870Z,10.29
2023-02-14T20:51:27.284Z,10.28
2023-02-14T20:53:53.680Z,10.18
2023-02-14T20:56:20.109Z,10.17
2023-02-14T20:58:46.504Z,10.02
2023-02-14T21:01:12.941Z,10.11
2023-02-14T21:03:39.399Z,10.05
2023-02-14T21:06:05.795Z,9.94
2023-02-14T21:08:32.197Z,9.97
2023-02-14T21:10:58.820Z,9.99
2023-02-14T21:13:25.324Z,9.91
2023-02-14T21:15:51.734Z,10.02
2023-02-14T21:18:18.122Z,10.02
2023-02-14T21:20:44.549Z,10.02
2023-02-14T21:23:10.923Z,10.03
2023-02-14T21:25:37.389Z,9.97
2023-02-14T21:28:03.775Z,9.91
2023-02-14T21:30:30.299Z,9.92
2023-02-14T21:32:56.699Z,9.94
2023-02-14T21:35:23.073Z,9.90
2023-02-14T21:37:49.478Z,9.88
2023-02-14T21:40:15.850Z,9.89
2023-02-14T21:42:42.261Z,9.88
2023-02-14T21:45:08.626Z,9.90
2023-02-14T21:47:35.052Z,9.85
2023-02-14T21:50:01.426Z,9.68
2023-02-14T21:52:27.804Z,9.63
2023-02-14T21:54:54.175Z,9.69
2023-02-14T21:57:20.529Z,9.69
2023-02-14T21:59:46.925Z,9.68
2023-02-14T22:02:13.317Z,9.68
2023-02-14T22:04:39.733Z,9.65
2023-02-14T22:07:06.113Z,9.52
2023-02-14T22:09:32.558Z,9.55
2023-02-14T22:11:58.932Z,9.54
2023-02-14T22:14:25.333Z,9.55
2023-02-14T22:16:51.746Z,9.50
2023-02-14T22:19:18.148Z,9.38
2023-02-14T22:21:44.563Z,9.23
2023-02-14T22:24:10.923Z,9.18
2023-02-14T22:26:37.317Z,9.17
2023-02-14T22:29:03.737Z,9.16
2023-02-14T22:31:30.220Z,9.12
2023-02-14T22:33:56.656Z,9.18
2023-02-14T22:36:23.064Z,9.19
2023-02-14T22:38:49.505Z,9.26
2023-02-14T22:41:15.878Z,9.12
2023-02-14T22:43:42.261Z,9.04
2023-02-14T22:46:08.660Z,9.17
2023-02-14T22:48:35.045Z,9.19
2023-02-14T22:51:01.428Z,9.18
2023-02-14T22:53:27.859Z,9.26
2023-02-14T22:55:54.250Z,9.00
2023-02-14T22:58:20.670Z,9.03
2023-02-14T23:00:47.100Z,9.02
2023-02-14T23:03:13.498Z,9.04
2023-02-14T23:05:39.891Z,9.08
2023-02-14T23:08:06.244Z,9.10
2023-02-14T23:10:32.806Z,9.10
2023-02-14T23:12:59.181Z,9.05
2023-02-14T23:15:25.549Z,9.02
2023-02-14T23:17:51.943Z,9.01
2023-02-14T23:20:18.300Z,9.05
2023-02-14T23:22:44.709Z,9.03
2023-02-14T23:25:11.139Z,8.98
2023-02-14T23:27:37.553Z,8.97
2023-02-14T23:30:04.013Z,8.96
2023-02-14T23:32:30.427Z,8.93
2023-02-14T23:34:56.928Z,8.90
2023-02-14T23:37:23.305Z,8.88
2023-02-14T23:39:49.744Z,8.88
2023-02-14T23:42:16.156Z,8.94
2023-02-14T23:44:42.566Z,8.96
2023-02-14T23:47:08.953Z,8.89
2023-02-14T23:49:35.329Z,8.72
2023-02-14T23:52:01.751Z,8.63
2023-02-14T23:54:28.126Z,8.66
2023-02-14T23:56:54.523Z,8.52
2023-02-14T23:59:20.907Z,8.51
